Time;durP1;ratioP1;P1;durP2;ratioP2;P2;SDS_P1;SDS_P2;PMS_P1;PMS_P2;Temp;Humidity;BMP_temperature;BMP_pressure;BME280_temperature;BME280_humidity;BME280_pressure;Samples;Min_cycle;Max_cycle;Signal;HPM_P1;HPM_P2
2022/10/02 00:02:29;;;;;;;4.60;2.40;;;11.00;99.90;;;;;;5021644;28;20202;-63
2022/10/02 00:05:02;;;;;;;10.57;3.50;;;11.10;99.90;;;;;;5025405;28;20572;-62
2022/10/02 00:07:34;;;;;;;5.13;2.53;;;11.10;99.90;;;;;;5023290;28;20575;-63
2022/10/02 00:10:05;;;;;;;8.10;3.53;;;11.10;99.90;;;;;;5024961;28;20646;-61
2022/10/02 00:12:34;;;;;;;8.20;2.30;;;11.10;99.90;;;;;;5019137;28;20187;-64
2022/10/02 00:15:11;;;;;;;5.93;2.50;;;11.20;99.90;;;;;;5024857;28;20300;-64
2022/10/02 00:17:41;;;;;;;10.13;3.07;;;11.20;99.90;;;;;;5020130;28;20734;-64
2022/10/02 00:20:16;;;;;;;8.93;2.50;;;11.20;99.90;;;;;;5026246;28;20203;-64
2022/10/02 00:22:45;;;;;;;7.23;2.60;;;11.20;99.90;;;;;;5034794;28;20295;-64
2022/10/02 00:25:33;;;;;;;3.37;2.50;;;11.20;99.90;;;;;;5037520;28;20233;-60
2022/10/02 00:28:18;;;;;;;5.47;2.63;;;11.10;99.90;;;;;;5030868;28;20216;-61
2022/10/02 00:30:56;;;;;;;11.47;3.10;;;11.20;99.90;;;;;;5026798;28;20643;-60
2022/10/02 00:33:49;;;;;;;8.43;3.00;;;11.20;99.90;;;;;;5019227;28;20560;-67
2022/10/02 00:36:33;;;;;;;4.90;2.60;;;11.20;99.90;;;;;;5015438;28;20178;-65
2022/10/02 00:39:11;;;;;;;13.30;2.93;;;11.30;99.90;;;;;;5020686;28;20197;-65
2022/10/02 00:41:56;;;;;;;8.00;2.70;;;11.30;99.90;;;;;;5023281;28;20258;-68
2022/10/02 00:44:46;;;;;;;11.90;2.33;;;11.40;99.90;;;;;;5016025;28;20242;-59
2022/10/02 00:47:38;;;;;;;7.20;2.67;;;11.40;99.90;;;;;;5009589;28;20258;-61
2022/10/02 00:50:25;;;;;;;7.33;2.40;;;11.40;99.90;;;;;;5022602;28;20209;-59
2022/10/02 00:53:16;;;;;;;9.00;2.47;;;11.50;99.90;;;;;;5017758;28;20373;-59
2022/10/02 00:55:50;;;;;;;7.03;2.53;;;11.50;99.90;;;;;;5010789;28;20299;-59
2022/10/02 00:58:24;;;;;;;5.37;2.23;;;11.50;99.90;;;;;;5031301;28;20213;-60
2022/10/02 01:01:22;;;;;;;14.37;3.00;;;11.50;99.90;;;;;;5027516;28;20195;-65
2022/10/02 01:03:53;;;;;;;5.73;2.30;;;11.50;99.90;;;;;;5019443;28;20257;-66
2022/10/02 01:06:21;;;;;;;7.93;2.57;;;11.50;99.90;;;;;;5032058;28;20261;-62
2022/10/02 01:08:47;;;;;;;12.33;2.90;;;11.40;99.90;;;;;;5021442;28;20695;-62
2022/10/02 01:11:12;;;;;;;10.10;2.50;;;11.40;99.90;;;;;;5036378;28;20285;-62
2022/10/02 01:13:38;;;;;;;7.00;3.00;;;11.30;99.90;;;;;;5023036;28;20674;-61
2022/10/02 01:16:08;;;;;;;4.30;1.80;;;11.30;99.90;;;;;;5037215;28;20197;-60
2022/10/02 01:18:33;;;;;;;6.50;2.73;;;11.20;99.90;;;;;;5028442;28;20208;-60
2022/10/02 01:21:05;;;;;;;7.30;2.67;;;11.20;99.90;;;;;;5025788;28;20258;-62
2022/10/02 01:23:38;;;;;;;5.73;2.27;;;11.10;99.90;;;;;;5024238;28;20216;-61
2022/10/02 01:26:03;;;;;;;11.27;2.77;;;11.10;99.90;;;;;;5029730;28;20699;-61
2022/10/02 01:28:29;;;;;;;12.13;2.03;;;11.10;99.90;;;;;;5029549;28;20216;-61
2022/10/02 01:31:01;;;;;;;5.10;2.13;;;11.00;99.90;;;;;;5025771;28;20311;-62
2022/10/02 01:33:27;;;;;;;4.30;1.87;;;11.00;99.90;;;;;;5015918;28;20201;-62
2022/10/02 01:35:53;;;;;;;6.13;2.87;;;11.00;99.90;;;;;;5034305;28;20665;-62
2022/10/02 01:38:22;;;;;;;5.83;3.00;;;10.90;99.90;;;;;;5029337;28;20609;-62
2022/10/02 01:40:48;;;;;;;10.13;2.80;;;10.90;99.90;;;;;;5027130;28;20193;-61
2022/10/02 01:43:17;;;;;;;9.97;2.57;;;10.90;99.90;;;;;;5023699;28;20233;-62
2022/10/02 01:46:06;;;;;;;7.50;2.13;;;10.90;99.90;;;;;;5040417;28;20664;-61
2022/10/02 01:48:37;;;;;;;4.47;2.27;;;10.90;99.90;;;;;;5017398;28;20218;-62
2022/10/02 01:51:25;;;;;;;15.37;3.20;;;10.90;99.90;;;;;;5026830;28;20232;-62
2022/10/02 01:54:18;;;;;;;9.13;2.83;;;10.80;99.90;;;;;;5025231;28;20605;-62
2022/10/02 01:57:04;;;;;;;6.77;2.50;;;10.80;99.90;;;;;;5021855;28;20195;-62
2022/10/02 01:59:30;;;;;;;7.70;2.50;;;10.80;99.90;;;;;;5014441;28;20707;-62
2022/10/02 02:02:16;;;;;;;5.70;2.60;;;10.80;99.90;;;;;;5027702;28;20189;-62
2022/10/02 02:04:52;;;;;;;8.03;2.87;;;10.70;99.90;;;;;;5016937;28;20194;-62
2022/10/02 02:07:49;;;;;;;8.23;2.80;;;10.70;99.90;;;;;;5016714;28;20569;-62
2022/10/02 02:10:23;;;;;;;8.23;2.30;;;10.80;99.90;;;;;;5012496;28;20183;-61
2022/10/02 02:13:22;;;;;;;11.07;2.57;;;10.70;99.90;;;;;;5016884;28;20227;-61
2022/10/02 02:15:56;;;;;;;11.03;3.47;;;10.70;99.90;;;;;;5024343;28;20226;-62
2022/10/02 02:18:34;;;;;;;9.60;2.90;;;10.70;99.90;;;;;;5020715;28;20212;-62
2022/10/02 02:21:12;;;;;;;10.37;2.57;;;10.70;99.90;;;;;;5022313;28;20193;-62
2022/10/02 02:23:39;;;;;;;7.10;2.40;;;10.80;99.90;;;;;;5017120;28;20676;-62
2022/10/02 02:26:11;;;;;;;8.43;2.63;;;10.70;99.90;;;;;;5040355;28;20193;-62
2022/10/02 02:28:41;;;;;;;6.77;2.00;;;10.70;99.90;;;;;;5028702;28;20216;-63
2022/10/02 02:31:10;;;;;;;9.97;2.93;;;10.70;99.90;;;;;;5033538;28;20386;-62
2022/10/02 02:33:46;;;;;;;10.60;2.80;;;10.80;99.90;;;;;;5029529;28;20624;-62
2022/10/02 02:36:16;;;;;;;4.83;2.37;;;10.80;99.90;;;;;;5017649;28;20282;-62
2022/10/02 02:38:50;;;;;;;13.60;3.07;;;10.80;99.90;;;;;;5015731;28;20201;-62
2022/10/02 02:41:23;;;;;;;5.10;3.00;;;10.80;99.90;;;;;;5017799;28;20666;-63
2022/10/02 02:43:55;;;;;;;8.73;2.87;;;10.70;99.90;;;;;;5017223;28;20670;-69
2022/10/02 02:47:02;;;;;;;6.53;2.90;;;10.70;99.90;;;;;;5012063;28;20195;-61
2022/10/02 02:49:25;;;;;;;7.07;2.63;;;10.70;99.90;;;;;;5013253;28;20216;-61
2022/10/02 02:51:53;;;;;;;4.67;2.23;;;10.70;99.90;;;;;;5043082;28;20242;-62
2022/10/02 02:54:24;;;;;;;11.50;3.13;;;10.70;99.90;;;;;;5018050;28;20733;-62
2022/10/02 02:56:51;;;;;;;8.77;2.77;;;10.70;99.90;;;;;;5014136;28;20196;-62
2022/10/02 02:59:19;;;;;;;8.63;3.10;;;10.60;99.90;;;;;;5019010;28;20218;-62
2022/10/02 03:01:45;;;;;;;8.67;2.57;;;10.70;99.90;;;;;;5031139;28;20188;-61
2022/10/02 03:04:12;;;;;;;7.47;2.60;;;10.60;99.90;;;;;;5016556;28;20304;-61
2022/10/02 03:06:41;;;;;;;10.47;2.53;;;10.70;99.90;;;;;;5031055;28;20203;-62
2022/10/02 03:09:13;;;;;;;8.07;2.80;;;10.60;99.90;;;;;;5025664;28;20210;-62
2022/10/02 03:11:51;;;;;;;13.07;2.73;;;10.60;99.90;;;;;;5020514;28;20246;-61
2022/10/02 03:14:45;;;;;;;7.93;2.60;;;10.60;99.90;;;;;;5019826;28;20227;-62
2022/10/02 03:17:39;;;;;;;7.90;3.27;;;10.60;99.90;;;;;;5019771;28;20242;-62
2022/10/02 03:20:16;;;;;;;10.87;3.77;;;10.60;99.90;;;;;;5023495;28;20201;-62
2022/10/02 03:23:00;;;;;;;7.30;2.47;;;10.60;99.90;;;;;;5010994;28;20204;-62
2022/10/02 03:25:35;;;;;;;10.73;3.50;;;10.60;99.90;;;;;;5024238;28;20192;-62
2022/10/02 03:28:08;;;;;;;8.13;2.77;;;10.60;99.90;;;;;;5011358;28;20232;-61
2022/10/02 03:30:36;;;;;;;5.47;2.47;;;10.70;99.90;;;;;;5016830;28;20321;-61
2022/10/02 03:33:04;;;;;;;8.93;2.53;;;10.60;99.90;;;;;;5029632;28;20223;-61
2022/10/02 03:35:30;;;;;;;9.37;2.43;;;10.60;99.90;;;;;;5028081;28;20179;-62
2022/10/02 03:38:02;;;;;;;9.03;2.73;;;10.60;99.90;;;;;;5035069;28;20602;-61
2022/10/02 03:40:27;;;;;;;7.03;2.67;;;10.60;99.90;;;;;;5021216;28;20283;-62
2022/10/02 03:42:57;;;;;;;9.17;3.10;;;10.60;99.90;;;;;;5034476;28;20753;-62
2022/10/02 03:45:23;;;;;;;7.70;2.37;;;10.70;99.90;;;;;;5027778;28;20191;-63
2022/10/02 03:47:49;;;;;;;6.33;2.20;;;10.60;99.90;;;;;;5032958;28;20684;-63
2022/10/02 03:50:15;;;;;;;7.70;2.33;;;10.60;99.90;;;;;;5027800;28;20318;-62
2022/10/02 03:52:41;;;;;;;10.17;2.17;;;10.60;99.90;;;;;;5028039;28;20615;-63
2022/10/02 03:55:33;;;;;;;10.73;3.40;;;10.60;99.90;;;;;;5024003;28;20190;-62
2022/10/02 03:58:04;;;;;;;5.97;2.47;;;10.60;99.90;;;;;;5018155;28;20634;-61
2022/10/02 04:00:36;;;;;;;6.87;2.40;;;10.70;99.90;;;;;;5017427;28;20210;-62
2022/10/02 04:03:14;;;;;;;8.57;3.33;;;10.70;99.90;;;;;;5024497;28;20214;-62
2022/10/02 04:05:51;;;;;;;4.93;1.70;;;10.70;99.90;;;;;;5019464;28;20292;-62
2022/10/02 04:08:26;;;;;;;8.53;2.90;;;10.70;99.90;;;;;;5019006;28;20212;-62
2022/10/02 04:11:11;;;;;;;12.03;2.40;;;10.70;99.90;;;;;;5021374;28;20203;-62
2022/10/02 04:13:47;;;;;;;8.00;2.17;;;10.70;99.90;;;;;;5035469;28;20223;-62
2022/10/02 04:16:44;;;;;;;11.13;3.07;;;10.70;99.90;;;;;;5024078;28;20249;-61
2022/10/02 04:19:20;;;;;;;8.43;2.67;;;10.70;99.90;;;;;;5021782;28;20292;-61
2022/10/02 04:21:52;;;;;;;5.57;2.30;;;10.70;99.90;;;;;;5026318;28;20547;-62
2022/10/02 04:24:28;;;;;;;5.10;2.27;;;10.80;99.90;;;;;;5029226;28;20242;-61
2022/10/02 04:27:06;;;;;;;7.07;2.53;;;10.80;99.90;;;;;;5025141;28;20192;-61
2022/10/02 04:29:47;;;;;;;7.03;2.33;;;10.80;99.90;;;;;;5017752;28;20201;-61
2022/10/02 04:32:15;;;;;;;5.27;2.50;;;10.90;99.90;;;;;;5024781;28;20476;-64
2022/10/02 04:34:41;;;;;;;3.93;2.10;;;10.90;99.90;;;;;;5025653;28;20316;-60
2022/10/02 04:37:30;;;;;;;6.90;2.07;;;11.00;99.90;;;;;;5029821;28;20341;-60
2022/10/02 04:40:26;;;;;;;7.93;2.40;;;11.00;99.90;;;;;;5018928;28;20191;-61
2022/10/02 04:43:12;;;;;;;6.30;2.30;;;11.10;99.90;;;;;;5024747;28;20201;-61
2022/10/02 04:46:12;;;;;;;9.60;2.57;;;11.10;99.90;;;;;;5026248;28;20192;-61
2022/10/02 04:48:56;;;;;;;10.67;2.10;;;11.20;99.90;;;;;;5014242;28;20282;-61
2022/10/02 04:51:41;;;;;;;7.20;2.40;;;11.20;99.90;;;;;;5020851;28;20354;-61
2022/10/02 04:54:29;;;;;;;6.07;1.93;;;11.20;99.90;;;;;;5028098;28;20674;-61
2022/10/02 04:57:09;;;;;;;8.77;2.53;;;11.30;99.90;;;;;;5020630;28;20188;-62
2022/10/02 04:59:50;;;;;;;3.27;2.23;;;11.30;99.90;;;;;;5018181;28;20211;-62
2022/10/02 05:02:24;;;;;;;11.43;2.63;;;11.30;99.90;;;;;;5015405;28;20199;-62
2022/10/02 05:04:52;;;;;;;7.00;2.43;;;11.20;99.90;;;;;;5016739;28;20231;-62
2022/10/02 05:07:44;;;;;;;4.47;2.13;;;11.10;99.90;;;;;;5027134;28;20195;-62
2022/10/02 05:10:40;;;;;;;5.53;2.27;;;11.10;99.90;;;;;;5011240;28;20196;-62
2022/10/02 05:13:30;;;;;;;10.57;3.07;;;11.10;99.90;;;;;;5023907;28;20201;-62
2022/10/02 05:16:29;;;;;;;8.37;2.47;;;11.00;99.90;;;;;;5020531;28;20566;-62
2022/10/02 05:19:18;;;;;;;5.53;2.40;;;11.00;99.90;;;;;;5015633;28;20687;-61
2022/10/02 05:22:16;;;;;;;3.27;1.60;;;11.00;99.90;;;;;;5025440;28;20194;-62
2022/10/02 05:25:03;;;;;;;3.70;1.80;;;10.90;99.90;;;;;;5021245;28;20239;-61
2022/10/02 05:27:28;;;;;;;4.33;3.17;;;10.90;99.90;;;;;;5031376;28;20671;-62
2022/10/02 05:30:15;;;;;;;6.80;2.60;;;10.90;99.90;;;;;;5018231;28;20197;-62
2022/10/02 05:33:12;;;;;;;5.63;2.60;;;10.90;99.90;;;;;;5007909;28;20197;-62
2022/10/02 05:36:06;;;;;;;2.77;1.80;;;10.90;99.90;;;;;;5025220;28;20648;-61
2022/10/02 05:39:06;;;;;;;4.57;2.03;;;10.90;99.90;;;;;;5034611;28;20204;-61
2022/10/02 05:41:53;;;;;;;7.70;2.30;;;10.90;99.90;;;;;;5033228;28;20206;-61
2022/10/02 05:44:46;;;;;;;8.07;2.57;;;11.00;99.90;;;;;;5016917;28;20268;-62
2022/10/02 05:47:30;;;;;;;5.63;2.23;;;11.00;99.90;;;;;;5019849;28;20213;-65
2022/10/02 05:50:04;;;;;;;8.67;2.30;;;11.00;99.90;;;;;;5016071;28;20354;-61
2022/10/02 05:52:59;;;;;;;4.00;2.57;;;11.10;99.90;;;;;;5005471;28;20359;-61
2022/10/02 05:55:27;;;;;;;8.20;2.80;;;11.20;99.90;;;;;;5000659;28;20231;-60
2022/10/02 05:58:04;;;;;;;7.20;2.10;;;11.30;99.90;;;;;;5016842;28;20210;-61
2022/10/02 06:01:01;;;;;;;4.90;2.20;;;11.50;99.90;;;;;;5014491;28;20188;-60
2022/10/02 06:03:38;;;;;;;6.53;2.40;;;11.60;99.90;;;;;;5022469;28;20230;-59
2022/10/02 06:06:16;;;;;;;9.23;2.17;;;11.70;99.90;;;;;;5024763;28;21107;-60
2022/10/02 06:08:52;;;;;;;4.37;2.10;;;11.70;99.90;;;;;;5011017;28;20228;-59
2022/10/02 06:11:30;;;;;;;4.77;2.77;;;11.60;99.90;;;;;;5022075;28;20283;-60
2022/10/02 06:14:11;;;;;;;7.07;2.77;;;11.50;99.90;;;;;;5014590;28;20388;-60
2022/10/02 06:16:44;;;;;;;13.30;3.33;;;11.40;99.90;;;;;;5012333;28;20464;-60
2022/10/02 06:19:16;;;;;;;8.03;4.27;;;11.40;99.90;;;;;;5010065;28;20208;-61
2022/10/02 06:21:45;;;;;;;6.80;3.00;;;11.40;99.90;;;;;;5015861;28;20180;-62
2022/10/02 06:24:17;;;;;;;11.97;3.80;;;11.40;99.90;;;;;;5029563;28;20220;-62
2022/10/02 06:27:07;;;;;;;11.60;2.90;;;11.40;99.90;;;;;;5008979;28;20193;-65
2022/10/02 06:29:40;;;;;;;10.27;3.70;;;11.50;99.90;;;;;;5013983;28;20264;-68
2022/10/02 06:32:30;;;;;;;7.27;3.03;;;11.50;99.90;;;;;;5012506;28;20196;-61
2022/10/02 06:34:56;;;;;;;5.47;3.17;;;11.60;99.90;;;;;;5015054;28;20203;-64
2022/10/02 06:37:49;;;;;;;7.63;3.20;;;11.70;99.90;;;;;;5024653;28;20192;-60
2022/10/02 06:40:36;;;;;;;8.70;3.33;;;11.80;99.90;;;;;;5013949;28;20280;-64
2022/10/02 06:43:17;;;;;;;8.73;3.43;;;11.80;99.90;;;;;;5011242;28;20466;-59
2022/10/02 06:46:07;;;;;;;6.87;3.13;;;11.80;99.90;;;;;;5014644;28;20178;-59
2022/10/02 06:48:53;;;;;;;7.30;3.20;;;11.70;99.90;;;;;;5016642;28;20213;-61
2022/10/02 06:51:26;;;;;;;6.27;3.47;;;11.80;99.90;;;;;;5017812;28;20312;-61
2022/10/02 06:54:21;;;;;;;7.80;3.00;;;11.90;99.90;;;;;;5013143;28;20299;-60
2022/10/02 06:56:58;;;;;;;6.87;3.17;;;12.00;99.90;;;;;;5017349;28;20198;-59
2022/10/02 06:59:55;;;;;;;7.40;3.07;;;12.00;99.90;;;;;;5016769;28;20237;-60
2022/10/02 07:02:40;;;;;;;11.13;3.53;;;12.00;99.90;;;;;;5014573;28;20675;-60
2022/10/02 07:05:27;;;;;;;5.60;3.17;;;12.00;99.90;;;;;;5017303;28;20410;-59
2022/10/02 07:08:11;;;;;;;10.83;3.73;;;12.10;99.90;;;;;;5014494;28;20298;-58
2022/10/02 07:10:49;;;;;;;6.93;3.33;;;12.10;99.90;;;;;;5018754;28;20180;-58
2022/10/02 07:13:34;;;;;;;9.63;3.93;;;12.10;99.90;;;;;;5022463;28;20469;-59
2022/10/02 07:16:10;;;;;;;9.87;3.77;;;12.10;99.90;;;;;;5014727;28;20182;-59
2022/10/02 07:19:05;;;;;;;12.30;3.30;;;12.10;99.90;;;;;;5029718;28;20667;-59
2022/10/02 07:21:38;;;;;;;9.00;4.13;;;12.20;99.90;;;;;;5039780;28;20228;-57
2022/10/02 07:24:34;;;;;;;8.03;3.50;;;12.20;99.90;;;;;;5033848;28;20328;-58
2022/10/02 07:27:37;;;;;;;6.43;3.40;;;12.30;99.90;;;;;;5018625;28;20227;-58
2022/10/02 07:30:15;;;;;;;7.73;3.67;;;12.30;99.90;;;;;;5016493;28;20204;-58
2022/10/02 07:33:06;;;;;;;9.47;3.83;;;12.40;99.90;;;;;;5014139;28;20189;-58
2022/10/02 07:35:48;;;;;;;11.00;3.73;;;12.50;99.90;;;;;;5018416;28;20277;-59
2022/10/02 07:38:43;;;;;;;11.70;4.27;;;12.50;99.90;;;;;;5017938;28;20203;-58
2022/10/02 07:41:32;;;;;;;6.40;3.93;;;12.60;99.90;;;;;;5018535;28;20220;-58
2022/10/02 07:44:14;;;;;;;11.17;4.50;;;12.70;99.90;;;;;;5021140;28;20239;-62
2022/10/02 07:46:53;;;;;;;11.17;4.63;;;12.80;99.90;;;;;;5027856;28;20200;-62
2022/10/02 07:49:46;;;;;;;14.77;4.60;;;12.90;99.90;;;;;;5014719;28;20212;-62
2022/10/02 07:52:27;;;;;;;7.63;4.37;;;13.00;99.90;;;;;;5035852;28;20296;-60
2022/10/02 07:55:18;;;;;;;15.97;5.10;;;13.00;99.90;;;;;;5020284;28;20194;-60
2022/10/02 07:57:58;;;;;;;7.03;4.47;;;13.10;99.90;;;;;;5016411;28;20244;-60
2022/10/02 08:00:26;;;;;;;10.00;4.53;;;13.10;99.90;;;;;;5016066;28;20207;-60
2022/10/02 08:02:56;;;;;;;11.83;4.43;;;13.20;99.90;;;;;;5041022;28;20568;-60
2022/10/02 08:05:25;;;;;;;13.07;4.17;;;13.20;99.90;;;;;;5026923;28;20294;-60
2022/10/02 08:08:02;;;;;;;5.63;4.20;;;13.30;99.90;;;;;;5032728;28;20215;-60
2022/10/02 08:10:33;;;;;;;9.13;3.53;;;13.50;99.90;;;;;;5024300;28;20198;-60
2022/10/02 08:13:02;;;;;;;8.30;4.87;;;13.60;99.90;;;;;;5025899;28;20187;-60
2022/10/02 08:15:34;;;;;;;10.10;4.70;;;13.70;99.90;;;;;;5019650;28;20261;-60
2022/10/02 08:18:12;;;;;;;8.00;4.43;;;13.80;99.90;;;;;;5017549;28;20288;-60
2022/10/02 08:20:42;;;;;;;6.73;4.20;;;13.90;99.90;;;;;;5026414;28;20578;-60
2022/10/02 08:23:28;;;;;;;11.30;4.93;;;14.00;99.90;;;;;;5014634;28;20183;-60
2022/10/02 08:26:05;;;;;;;11.03;5.40;;;14.10;99.90;;;;;;5017276;28;20213;-60
2022/10/02 08:28:37;;;;;;;8.50;4.17;;;14.20;99.90;;;;;;5024954;28;20230;-60
2022/10/02 08:31:09;;;;;;;5.87;4.00;;;14.30;99.90;;;;;;5018235;28;20181;-60
2022/10/02 08:33:35;;;;;;;11.73;4.00;;;14.30;99.90;;;;;;5012594;28;20191;-60
2022/10/02 08:36:29;;;;;;;8.20;3.33;;;14.30;99.90;;;;;;5024114;28;20655;-60
2022/10/02 08:39:30;;;;;;;10.27;4.17;;;14.30;99.90;;;;;;5018420;28;20314;-60
2022/10/02 08:42:30;;;;;;;13.93;4.63;;;14.40;99.90;;;;;;5030478;28;20701;-60
2022/10/02 08:45:17;;;;;;;9.63;4.60;;;14.40;99.90;;;;;;5024705;28;20207;-60
2022/10/02 08:48:08;;;;;;;9.60;5.00;;;14.50;99.90;;;;;;5017435;28;20230;-60
2022/10/02 08:51:11;;;;;;;9.27;4.47;;;14.60;99.90;;;;;;5024840;28;20705;-61
2022/10/02 08:54:16;;;;;;;14.93;4.93;;;14.70;99.90;;;;;;5020283;28;20219;-60
2022/10/02 08:56:57;;;;;;;8.90;4.10;;;14.80;99.90;;;;;;4998961;28;20195;-60
2022/10/02 08:59:24;;;;;;;14.67;4.83;;;14.90;99.90;;;;;;5019186;28;20278;-61
2022/10/02 09:02:26;;;;;;;8.50;4.10;;;14.90;99.90;;;;;;5031822;28;20451;-61
2022/10/02 09:05:22;;;;;;;16.17;6.37;;;15.10;99.90;;;;;;5021913;28;20301;-61
2022/10/02 09:08:35;;;;;;;13.40;4.20;;;15.10;99.90;;;;;;5027513;28;20212;-60
2022/10/02 09:11:39;;;;;;;9.60;4.73;;;15.10;99.90;;;;;;5012761;28;20278;-61
2022/10/02 09:14:42;;;;;;;8.57;4.53;;;15.20;99.90;;;;;;5024242;28;20195;-61
2022/10/02 09:17:39;;;;;;;9.07;4.60;;;15.20;99.90;;;;;;5025903;28;20184;-60
2022/10/02 09:20:36;;;;;;;10.13;4.20;;;15.20;99.90;;;;;;5023124;28;20207;-60
2022/10/02 09:23:23;;;;;;;9.77;4.50;;;15.20;99.90;;;;;;5012249;28;20667;-60
2022/10/02 09:25:57;;;;;;;9.73;3.93;;;15.30;99.90;;;;;;5020589;28;20628;-60
2022/10/02 09:28:44;;;;;;;14.03;4.03;;;15.30;99.90;;;;;;5035364;28;20230;-60
2022/10/02 09:31:38;;;;;;;9.90;4.57;;;15.30;99.90;;;;;;5013423;28;20588;-60
2022/10/02 09:34:16;;;;;;;9.30;4.67;;;15.30;99.90;;;;;;5023180;28;20254;-60
2022/10/02 09:37:07;;;;;;;11.83;4.30;;;15.30;99.90;;;;;;5025519;28;20214;-60
2022/10/02 09:40:13;;;;;;;11.77;4.07;;;15.40;99.90;;;;;;5023093;28;20211;-64
2022/10/02 09:43:08;;;;;;;11.67;3.70;;;15.40;99.90;;;;;;5017547;28;20237;-63
2022/10/02 09:45:51;;;;;;;8.83;4.17;;;15.40;99.90;;;;;;5017055;28;20204;-60
2022/10/02 09:48:46;;;;;;;6.57;3.57;;;15.50;99.90;;;;;;5018431;28;20298;-60
2022/10/02 09:51:21;;;;;;;13.10;3.87;;;15.70;99.90;;;;;;5017195;28;20291;-61
2022/10/02 09:54:01;;;;;;;13.80;4.03;;;15.80;99.90;;;;;;5029955;28;20213;-60
2022/10/02 09:56:39;;;;;;;8.90;3.60;;;15.90;99.90;;;;;;5025239;28;20189;-60
2022/10/02 09:59:53;;;;;;;7.43;3.17;;;15.90;99.90;;;;;;5027276;28;20194;-60
2022/10/02 10:02:22;;;;;;;10.00;3.47;;;16.00;99.90;;;;;;5029613;28;20222;-60
2022/10/02 10:05:24;;;;;;;8.73;3.60;;;16.00;99.90;;;;;;5032446;28;20219;-60
2022/10/02 10:07:59;;;;;;;5.90;3.00;;;15.90;99.90;;;;;;5010208;28;20760;-60
2022/10/02 10:10:39;;;;;;;8.37;4.03;;;15.70;99.90;;;;;;5015912;28;20278;-60
2022/10/02 10:13:25;;;;;;;8.97;3.53;;;15.60;99.90;;;;;;5008061;28;20773;-60
2022/10/02 10:16:17;;;;;;;6.23;3.40;;;15.40;99.90;;;;;;5021173;28;20199;-60
2022/10/02 10:19:21;;;;;;;9.33;4.43;;;15.10;99.90;;;;;;5007438;28;20191;-60
2022/10/02 10:22:25;;;;;;;8.10;3.70;;;14.80;99.90;;;;;;5019984;28;20203;-60
2022/10/02 10:25:27;;;;;;;7.47;3.67;;;14.50;99.90;;;;;;5022086;28;20191;-60
2022/10/02 10:28:18;;;;;;;10.60;4.77;;;14.40;99.90;;;;;;5023977;28;20213;-60
2022/10/02 10:31:03;;;;;;;5.40;3.70;;;14.40;99.90;;;;;;5019123;28;20214;-60
2022/10/02 10:34:10;;;;;;;6.90;2.60;;;14.60;99.90;;;;;;5005079;28;20259;-60
2022/10/02 10:39:58;;;;;;;8.17;2.90;;;14.90;99.90;;;;;;5015254;28;20253;-59
2022/10/02 10:43:03;;;;;;;4.50;2.40;;;14.90;99.90;;;;;;5025389;28;20214;-59
2022/10/02 10:45:53;;;;;;;5.50;2.30;;;14.80;99.90;;;;;;5017328;28;20199;-59
2022/10/02 10:48:47;;;;;;;3.87;2.17;;;14.70;99.90;;;;;;5004264;28;20219;-60
2022/10/02 10:51:37;;;;;;;3.80;2.80;;;14.80;99.90;;;;;;5011474;28;20230;-59
2022/10/02 10:54:23;;;;;;;5.17;2.57;;;14.70;99.90;;;;;;5022192;28;20283;-60
2022/10/02 10:57:10;;;;;;;8.17;2.63;;;14.80;99.90;;;;;;5010878;28;20221;-60
2022/10/02 11:00:11;;;;;;;5.20;3.40;;;14.90;99.90;;;;;;5022405;28;20644;-60
2022/10/02 11:03:05;;;;;;;5.47;3.43;;;15.00;99.90;;;;;;5007898;28;20689;-60
2022/10/02 11:06:10;;;;;;;5.47;3.50;;;15.20;99.90;;;;;;5016415;28;20254;-60
2022/10/02 11:09:04;;;;;;;5.10;3.40;;;15.40;99.90;;;;;;5024139;28;20215;-60
2022/10/02 11:11:58;;;;;;;7.07;3.33;;;15.70;99.90;;;;;;5015070;28;20329;-60
2022/10/02 11:15:11;;;;;;;4.87;3.20;;;16.00;99.90;;;;;;5019901;28;20225;-60
2022/10/02 11:17:50;;;;;;;5.73;3.37;;;16.10;99.90;;;;;;5034210;28;20303;-60
2022/10/02 11:20:21;;;;;;;7.83;2.97;;;16.10;99.90;;;;;;5015666;28;20657;-60
2022/10/02 11:23:31;;;;;;;5.80;2.97;;;15.90;99.90;;;;;;5029094;28;20192;-60
2022/10/02 11:26:17;;;;;;;3.20;2.53;;;15.80;99.90;;;;;;5016477;28;20207;-60
2022/10/02 11:29:24;;;;;;;6.63;2.87;;;15.40;99.90;;;;;;5018514;28;20315;-60
2022/10/02 11:32:35;;;;;;;3.83;2.53;;;15.10;99.90;;;;;;5017722;28;20187;-60
2022/10/02 11:35:22;;;;;;;7.80;3.00;;;14.80;99.90;;;;;;5013496;28;20294;-60
2022/10/02 11:38:17;;;;;;;7.23;3.03;;;14.80;99.90;;;;;;5013493;28;20689;-60
2022/10/02 11:41:10;;;;;;;3.70;3.40;;;15.10;99.90;;;;;;5017393;28;20558;-60
2022/10/02 11:44:10;;;;;;;3.33;2.23;;;15.40;99.90;;;;;;5024154;28;20197;-60
2022/10/02 11:47:27;;;;;;;6.80;2.77;;;15.80;99.90;;;;;;5016032;28;20254;-61
2022/10/02 11:50:04;;;;;;;3.87;3.47;;;16.20;99.90;;;;;;5026314;28;20212;-60
2022/10/02 11:53:04;;;;;;;11.67;3.10;;;16.60;99.90;;;;;;5022611;28;20606;-60
2022/10/02 11:56:09;;;;;;;7.23;3.27;;;16.60;99.90;;;;;;5004802;28;20208;-60
2022/10/02 11:58:47;;;;;;;6.73;3.00;;;16.60;99.90;;;;;;5019339;28;20214;-60
2022/10/02 12:01:23;;;;;;;7.13;3.47;;;16.70;99.90;;;;;;5015792;28;20200;-60
2022/10/02 12:04:19;;;;;;;10.73;3.37;;;16.70;99.90;;;;;;5021267;28;20558;-60
2022/10/02 12:06:59;;;;;;;6.23;3.37;;;16.90;99.90;;;;;;5017218;28;20574;-62
2022/10/02 12:10:06;;;;;;;4.87;3.13;;;17.20;99.90;;;;;;5020518;28;20215;-62
2022/10/02 12:13:01;;;;;;;5.80;2.63;;;17.10;99.90;;;;;;5021051;28;20188;-62
2022/10/02 12:15:59;;;;;;;4.20;2.33;;;17.20;99.90;;;;;;5017995;28;20230;-62
2022/10/02 12:19:09;;;;;;;5.63;2.50;;;17.10;99.90;;;;;;5017330;28;20258;-62
2022/10/02 12:28:10;;;;;;;5.30;2.60;;;17.70;99.90;;;;;;5017511;28;20226;-76
2022/10/02 12:30:48;;;;;;;3.00;2.60;;;17.30;99.90;;;;;;5018633;28;20711;-75
2022/10/02 12:33:26;;;;;;;6.07;2.20;;;17.90;99.90;;;;;;5015420;28;20226;-75
2022/10/02 12:36:16;;;;;;;5.90;2.10;;;18.20;99.90;;;;;;5017703;28;20242;-74
2022/10/02 12:39:00;;;;;;;3.03;1.73;;;17.80;99.90;;;;;;5017269;28;20287;-75
2022/10/02 12:41:57;;;;;;;6.37;2.00;;;17.20;99.90;;;;;;5012650;28;20358;-79
2022/10/02 12:44:44;;;;;;;2.40;1.57;;;17.00;99.90;;;;;;5016443;28;20182;-73
2022/10/02 12:47:38;;;;;;;4.20;1.77;;;17.80;99.90;;;;;;5017784;28;20200;-73
2022/10/02 12:50:32;;;;;;;3.37;1.70;;;18.30;99.90;;;;;;5015513;28;21284;-67
2022/10/02 12:53:35;;;;;;;2.60;1.57;;;18.90;99.90;;;;;;5014935;28;20233;-68
2022/10/02 12:56:37;;;;;;;3.77;1.93;;;19.50;99.90;;;;;;5014130;28;20234;-70
2022/10/02 12:59:31;;;;;;;2.83;1.70;;;18.90;99.90;;;;;;5011535;28;20200;-71
2022/10/02 13:02:42;;;;;;;2.83;1.80;;;18.40;99.90;;;;;;5019134;28;20187;-72
2022/10/02 13:05:21;;;;;;;3.10;1.70;;;18.00;99.90;;;;;;4984256;28;20205;-72
2022/10/02 13:08:17;;;;;;;4.93;1.77;;;17.90;99.90;;;;;;5019705;28;20224;-71
2022/10/02 13:10:56;;;;;;;5.13;1.50;;;18.40;99.90;;;;;;5047633;28;20663;-71
2022/10/02 13:13:52;;;;;;;5.57;1.37;;;19.10;99.90;;;;;;5015281;28;20204;-71
2022/10/02 13:16:30;;;;;;;3.60;1.47;;;19.30;99.90;;;;;;5014478;28;20210;-70
2022/10/02 13:19:03;;;;;;;4.93;1.60;;;19.20;99.90;;;;;;5018914;28;20776;-71
2022/10/02 13:21:59;;;;;;;2.67;1.43;;;18.70;99.90;;;;;;5015749;28;20209;-70
2022/10/02 13:24:51;;;;;;;5.67;1.57;;;18.40;99.90;;;;;;5017553;28;20180;-70
2022/10/02 13:27:48;;;;;;;6.13;1.67;;;17.80;99.90;;;;;;5018448;28;20322;-70
2022/10/02 13:30:15;;;;;;;5.30;1.57;;;17.60;99.90;;;;;;5015104;28;20316;-70
2022/10/02 13:33:04;;;;;;;3.80;2.10;;;17.50;99.90;;;;;;5015553;28;20180;-71
2022/10/02 13:35:53;;;;;;;4.03;1.47;;;17.30;99.90;;;;;;5014283;28;20200;-70
2022/10/02 13:38:56;;;;;;;7.03;1.90;;;17.10;99.90;;;;;;5017323;28;20279;-70
2022/10/02 13:41:21;;;;;;;3.23;1.63;;;17.00;99.90;;;;;;5014848;28;20305;-70
2022/10/02 13:44:06;;;;;;;5.20;1.90;;;17.00;99.90;;;;;;5019210;28;20298;-69
2022/10/02 13:47:10;;;;;;;6.77;1.70;;;17.10;99.90;;;;;;5016553;28;20199;-70
2022/10/02 13:50:04;;;;;;;3.60;1.27;;;17.20;99.90;;;;;;5013308;28;20184;-70
2022/10/02 13:52:36;;;;;;;4.27;2.00;;;17.50;99.90;;;;;;5019704;28;20231;-69
2022/10/02 13:55:19;;;;;;;5.33;1.63;;;18.20;99.90;;;;;;5015669;28;20677;-70
2022/10/02 13:58:22;;;;;;;3.50;1.50;;;18.70;99.90;;;;;;5014240;28;20235;-72
2022/10/02 14:01:14;;;;;;;3.53;1.13;;;19.60;99.90;;;;;;5015581;28;20209;-63
2022/10/02 14:04:01;;;;;;;3.23;2.00;;;19.90;99.90;;;;;;5019199;28;20214;-70
2022/10/02 14:06:37;;;;;;;3.80;1.67;;;20.10;99.90;;;;;;5012925;28;20552;-72
2022/10/02 14:09:17;;;;;;;3.17;1.30;;;20.00;99.90;;;;;;5016692;28;20313;-71
2022/10/02 14:12:07;;;;;;;3.80;1.67;;;19.90;99.90;;;;;;5014442;28;20199;-73
2022/10/02 14:14:45;;;;;;;3.70;1.40;;;20.40;99.50;;;;;;5014719;28;20175;-68
2022/10/02 14:17:41;;;;;;;2.40;1.60;;;20.50;98.20;;;;;;5017244;28;20392;-69
2022/10/02 14:20:37;;;;;;;2.67;1.20;;;20.20;97.60;;;;;;5016705;28;20203;-68